Hlavní strana
METAR-TAF:

METAR-TAF

Letiště :

Winnsboro, Jižní Karolína, Spojené státy americké

zeměpisná šířka: 34-18-56N, zeměpisná délka: 081-06-32W, výška: 176 m

Aktuální stav počasí

Zpráva byla vytvořena před 8 minutami, v 10:55 UTC
Jihozápadní vítr 5 kt
Teplota 21°C
Vlhkost vzduchu 83%
Tlak 1021 hPa
Viditelnost: 16.1 km
Jasno

METAR: KFDW 241055Z AUTO 23005KT 10SM CLR 21/18 A3015 RMK AO1

Čas: 07:03 (11:03 UTC)


TAF: chybějící

Stav a předpovědi počasí z více než 4 000 letišť (zprávy METAR a TAF).

Červené a žluté tečky na mapě představují dostupné meteorologické stanice.

Když kurzor umístíte na tečku, zobrazí se název stanice.

Pak kliknutím zobrazíte stav a předpověď počasí.

Chcete-li změnit mapu, kliknutím na zelené tlačítko se znaménkem +mapu přiblížíte, kliknutím na zelené tlačítko se znaménkem – mapu oddálíte a kliknutím na zelené šipky přejdete na sousední mapy.


METAR-TAF: